Time;durP1;ratioP1;P1;durP2;ratioP2;P2;SDS_P1;SDS_P2;PMS_P1;PMS_P2;Temp;Humidity;BMP_temperature;BMP_pressure;BME280_temperature;BME280_humidity;BME280_pressure;Samples;Min_cycle;Max_cycle;Signal;HPM_P1;HPM_P2
2023/08/16 00:01:21;;;;;;;1.75;1.30;;;;;;;24.84;57.90;100130.41;4419807;32;33232;-89
2023/08/16 00:03:49;;;;;;;6.80;1.12;;;;;;;24.76;58.14;100128.44;4415128;32;33634;-89
2023/08/16 00:06:17;;;;;;;2.08;1.85;;;;;;;24.77;58.02;100119.31;4431749;32;34674;-88
2023/08/16 00:08:44;;;;;;;1.08;0.98;;;;;;;24.62;58.53;100121.69;4418325;32;32665;-89
2023/08/16 00:11:12;;;;;;;0.70;0.70;;;;;;;24.59;58.71;100126.53;4418223;32;32598;-88
2023/08/16 00:13:40;;;;;;;1.37;1.27;;;;;;;24.52;58.87;100128.97;4417701;32;32577;-88
2023/08/16 00:16:08;;;;;;;2.03;0.98;;;;;;;24.53;58.98;100125.28;4404483;32;32345;-88
2023/08/16 00:18:36;;;;;;;4.82;1.70;;;;;;;24.46;59.13;100125.03;4417646;32;33108;-89
2023/08/16 00:21:04;;;;;;;3.08;0.90;;;;;;;24.45;59.23;100119.75;4403942;32;31896;-89
2023/08/16 00:23:31;;;;;;;0.62;0.60;;;;;;;24.39;59.35;100123.06;4413644;32;33123;-88
2023/08/16 00:25:59;;;;;;;1.33;0.80;;;;;;;24.31;59.80;100122.91;4426158;32;34146;-88
2023/08/16 00:28:27;;;;;;;1.60;1.05;;;;;;;24.26;59.88;100120.69;4414471;32;32616;-88
2023/08/16 00:30:55;;;;;;;0.65;0.65;;;;;;;24.31;59.80;100114.81;4428657;32;33337;-88
2023/08/16 00:33:23;;;;;;;1.12;1.08;;;;;;;24.33;59.52;100112.81;4412288;32;32826;-88
2023/08/16 00:35:52;;;;;;;1.42;1.17;;;;;;;24.23;59.80;100119.09;4431464;32;33258;-88
2023/08/16 00:38:20;;;;;;;1.35;1.25;;;;;;;24.35;59.65;100118.91;4417710;32;31929;-89
2023/08/16 00:40:49;;;;;;;1.83;1.10;;;;;;;24.21;60.15;100118.41;4427718;32;33541;-89
2023/08/16 00:43:17;;;;;;;2.55;1.02;;;;;;;24.13;60.49;100104.81;4427832;32;34629;-88
2023/08/16 00:45:45;;;;;;;1.12;1.10;;;;;;;24.07;60.56;100110.78;4418062;32;32949;-88
2023/08/16 00:48:14;;;;;;;4.20;1.48;;;;;;;24.14;60.09;100105.66;4416721;32;33676;-89
2023/08/16 00:50:42;;;;;;;0.88;0.82;;;;;;;24.21;59.90;100107.63;4404228;32;33308;-89
2023/08/16 00:53:12;;;;;;;0.73;0.73;;;;;;;24.28;59.69;100102.47;4417627;32;33226;-88
2023/08/16 00:55:40;;;;;;;0.35;0.35;;;;;;;24.22;59.91;100098.53;4417769;32;32733;-88
2023/08/16 00:58:08;;;;;;;1.62;1.52;;;;;;;24.20;59.88;100095.09;4420057;32;32543;-87
2023/08/16 01:00:36;;;;;;;1.55;1.15;;;;;;;24.31;59.55;100093.22;4417549;32;33572;-87
2023/08/16 01:03:04;;;;;;;1.50;1.12;;;;;;;24.32;59.48;100097.66;4423704;32;33756;-88
2023/08/16 01:05:32;;;;;;;0.65;0.50;;;;;;;24.37;59.17;100095.38;4431825;32;34649;-88
2023/08/16 01:08:02;;;;;;;1.55;1.40;;;;;;;24.36;59.02;100093.66;4416475;32;32543;-88
2023/08/16 01:11:02;;;;;;;0.35;0.35;;;;;;;24.30;59.06;100089.66;4432901;32;33363;-88
2023/08/16 01:13:59;;;;;;;1.87;1.67;;;;;;;24.36;58.60;100088.25;4431743;32;33586;-88
2023/08/16 01:16:28;;;;;;;1.00;0.98;;;;;;;24.19;58.98;100088.00;4418382;32;34000;-88
2023/08/16 01:18:57;;;;;;;0.82;0.70;;;;;;;24.10;59.16;100082.66;4418703;32;31932;-88
2023/08/16 01:21:25;;;;;;;6.68;1.77;;;;;;;24.07;59.30;100083.81;4419175;32;33917;-88
2023/08/16 01:24:17;;;;;;;1.12;1.02;;;;;;;24.11;59.05;100090.59;4419721;32;32743;-89
2023/08/16 01:26:45;;;;;;;3.97;2.78;;;;;;;24.09;59.06;100087.19;4416282;32;34015;-88
2023/08/16 01:29:15;;;;;;;1.62;1.52;;;;;;;24.10;59.00;100080.81;4424213;32;32725;-88
2023/08/16 01:31:42;;;;;;;1.40;1.27;;;;;;;24.15;58.83;100091.16;4416915;32;34154;-88
2023/08/16 01:34:11;;;;;;;1.73;1.27;;;;;;;24.09;58.97;100081.81;4405233;32;34040;-88
2023/08/16 01:36:39;;;;;;;3.03;1.92;;;;;;;23.99;59.50;100081.00;4416225;32;32731;-89
2023/08/16 01:39:08;;;;;;;4.72;0.88;;;;;;;24.19;58.73;100087.16;4405536;32;32707;-88
2023/08/16 01:41:39;;;;;;;1.02;0.90;;;;;;;24.03;59.38;100093.19;4432510;32;33739;-89
2023/08/16 01:44:08;;;;;;;0.40;0.40;;;;;;;24.01;59.77;100082.53;4431458;32;34098;-89
2023/08/16 01:46:38;;;;;;;0.77;0.77;;;;;;;24.05;59.50;100099.28;4419470;32;33611;-88
2023/08/16 01:49:07;;;;;;;1.23;0.95;;;;;;;23.91;60.00;100088.94;4417162;32;32487;-87
2023/08/16 01:51:34;;;;;;;1.10;1.02;;;;;;;23.92;60.07;100088.78;4432202;32;33269;-88
2023/08/16 01:54:03;;;;;;;1.92;1.33;;;;;;;23.88;60.29;100079.31;4413953;32;32947;-87
2023/08/16 01:56:31;;;;;;;0.95;0.88;;;;;;;23.98;59.90;100090.09;4418051;32;33453;-87
2023/08/16 01:59:00;;;;;;;1.67;1.35;;;;;;;23.85;60.33;100081.44;4406399;32;34193;-88
2023/08/16 02:01:27;;;;;;;1.35;1.10;;;;;;;23.85;60.31;100085.00;4432167;32;33868;-88
2023/08/16 02:03:55;;;;;;;1.08;0.98;;;;;;;23.96;60.09;100083.97;4427517;32;34389;-87
2023/08/16 02:06:24;;;;;;;2.47;1.42;;;;;;;23.92;60.11;100080.72;4431246;32;33626;-87
2023/08/16 02:08:52;;;;;;;2.40;1.52;;;;;;;23.96;59.91;100083.97;4405182;32;32369;-87
2023/08/16 02:11:20;;;;;;;1.83;1.60;;;;;;;23.91;60.02;100078.16;4432710;32;33740;-87
2023/08/16 02:13:48;;;;;;;3.25;1.25;;;;;;;23.83;60.18;100078.03;4432826;32;33957;-87
2023/08/16 02:16:16;;;;;;;4.18;2.55;;;;;;;23.88;60.02;100073.94;4417111;32;34125;-87
2023/08/16 02:18:44;;;;;;;0.85;0.85;;;;;;;23.77;60.37;100068.69;4414778;32;32471;-87
2023/08/16 02:21:12;;;;;;;2.17;1.37;;;;;;;23.80;60.41;100078.34;4416273;32;35481;-87
2023/08/16 02:23:40;;;;;;;0.75;0.62;;;;;;;23.80;60.50;100067.56;4420254;32;32971;-87
2023/08/16 02:26:08;;;;;;;2.15;1.37;;;;;;;23.81;60.43;100069.25;4416663;32;32559;-87
2023/08/16 02:28:36;;;;;;;2.25;1.67;;;;;;;23.76;60.70;100064.28;4430152;32;33987;-87
2023/08/16 02:31:06;;;;;;;2.15;1.45;;;;;;;23.71;60.79;100063.87;4429145;32;33867;-87
2023/08/16 02:33:34;;;;;;;1.67;1.58;;;;;;;23.72;60.91;100062.88;4419687;32;33639;-87
2023/08/16 02:36:02;;;;;;;1.73;1.58;;;;;;;23.70;60.81;100065.72;4431667;32;33886;-87
2023/08/16 02:38:30;;;;;;;1.42;1.17;;;;;;;23.67;60.86;100068.72;4403367;32;32680;-87
2023/08/16 02:41:00;;;;;;;3.92;2.40;;;;;;;23.66;60.79;100064.31;4433042;32;33239;-86
2023/08/16 02:43:28;;;;;;;0.90;0.88;;;;;;;23.68;60.79;100054.22;4419431;32;34211;-87
2023/08/16 02:45:57;;;;;;;3.05;0.98;;;;;;;23.65;60.92;100061.78;4416178;32;33555;-87
2023/08/16 02:48:25;;;;;;;1.00;1.00;;;;;;;23.71;60.63;100059.34;4428032;32;33322;-87
2023/08/16 02:50:53;;;;;;;1.23;1.12;;;;;;;23.60;61.10;100062.19;4417246;32;32820;-86
2023/08/16 02:53:21;;;;;;;1.75;1.55;;;;;;;23.86;59.97;100059.72;4418470;32;32752;-86
2023/08/16 02:55:49;;;;;;;1.23;0.70;;;;;;;23.64;60.73;100068.13;4415071;32;33342;-87
2023/08/16 02:58:17;;;;;;;8.27;1.70;;;;;;;23.58;60.92;100061.44;4417097;32;33300;-87
2023/08/16 03:00:44;;;;;;;0.30;0.30;;;;;;;23.40;61.45;100063.16;4417173;32;34272;-87
2023/08/16 03:03:13;;;;;;;1.70;1.17;;;;;;;23.36;61.59;100068.00;4411299;32;33160;-88
2023/08/16 03:05:41;;;;;;;0.85;0.75;;;;;;;23.48;61.18;100066.00;4429819;32;33204;-87
2023/08/16 03:08:08;;;;;;;1.20;1.10;;;;;;;23.37;61.33;100072.41;4418548;32;32335;-86
2023/08/16 03:10:37;;;;;;;2.10;1.42;;;;;;;23.35;61.30;100076.22;4417460;32;33365;-86
2023/08/16 03:13:04;;;;;;;1.90;1.73;;;;;;;23.32;61.34;100076.53;4420348;32;32897;-86
2023/08/16 03:15:33;;;;;;;0.70;0.70;;;;;;;23.59;60.41;100073.06;4419601;32;32667;-86
2023/08/16 03:18:01;;;;;;;0.77;0.77;;;;;;;23.40;61.17;100074.78;4428019;32;33739;-86
2023/08/16 03:20:28;;;;;;;1.15;1.05;;;;;;;23.29;61.50;100077.63;4431024;32;34729;-86
2023/08/16 03:22:56;;;;;;;1.77;1.00;;;;;;;23.26;62.02;100080.59;4433514;32;33528;-85
2023/08/16 03:25:24;;;;;;;1.92;1.73;;;;;;;23.14;62.42;100088.00;4403493;32;32818;-85
2023/08/16 03:27:53;;;;;;;0.93;0.80;;;;;;;23.20;62.30;100097.34;4406601;32;32766;-85
2023/08/16 03:30:20;;;;;;;1.10;0.98;;;;;;;23.25;62.13;100082.44;4419737;32;33847;-84
2023/08/16 03:32:48;;;;;;;1.20;0.85;;;;;;;23.21;62.39;100089.13;4436494;32;33450;-85
2023/08/16 03:35:17;;;;;;;3.33;1.15;;;;;;;23.24;62.13;100080.75;4417157;32;33631;-84
2023/08/16 03:37:45;;;;;;;0.82;0.82;;;;;;;23.19;62.52;100092.94;4420487;32;33095;-89
2023/08/16 03:40:14;;;;;;;1.10;1.10;;;;;;;23.20;62.36;100090.09;4405896;32;33353;-88
2023/08/16 03:42:42;;;;;;;0.68;0.62;;;;;;;23.17;62.55;100090.41;4424844;32;33445;-88
2023/08/16 03:45:10;;;;;;;0.70;0.70;;;;;;;23.17;62.56;100095.81;4444660;32;33548;-88
2023/08/16 03:47:39;;;;;;;3.33;0.85;;;;;;;23.22;62.26;100096.22;4432215;32;32623;-89
2023/08/16 03:50:07;;;;;;;1.10;1.00;;;;;;;23.25;62.18;100097.78;4406613;32;33127;-88
2023/08/16 03:52:34;;;;;;;1.37;0.90;;;;;;;23.31;62.04;100107.12;4417898;32;32934;-88
2023/08/16 03:55:02;;;;;;;2.70;1.20;;;;;;;23.22;62.35;100095.38;4408680;32;33580;-88
2023/08/16 03:57:30;;;;;;;1.58;1.40;;;;;;;23.31;61.89;100094.53;4407266;32;32334;-88
2023/08/16 03:59:58;;;;;;;1.02;0.77;;;;;;;23.31;62.06;100097.22;4432160;32;34019;-88
2023/08/16 04:02:28;;;;;;;0.82;0.80;;;;;;;23.25;62.30;100095.91;4406248;32;33977;-86
2023/08/16 04:05:08;;;;;;;1.67;1.37;;;;;;;23.19;62.47;100088.41;4420448;32;33409;-86
2023/08/16 04:07:35;;;;;;;1.48;1.27;;;;;;;23.20;62.56;100089.25;4420721;32;33232;-87
2023/08/16 04:10:05;;;;;;;1.15;1.05;;;;;;;23.41;61.93;100097.22;4435377;32;33592;-87
2023/08/16 04:12:34;;;;;;;3.08;1.50;;;;;;;23.32;62.10;100101.63;4436908;32;34182;-86
2023/08/16 04:15:01;;;;;;;1.25;1.12;;;;;;;23.14;62.80;100106.84;4433578;32;34206;-86
2023/08/16 04:17:30;;;;;;;0.85;0.80;;;;;;;23.28;62.40;100108.28;4421038;32;33175;-85
2023/08/16 04:19:58;;;;;;;0.77;0.77;;;;;;;23.27;62.57;100111.13;4431184;32;33951;-85
2023/08/16 04:22:25;;;;;;;1.55;1.37;;;;;;;23.36;62.25;100115.63;4405597;32;33292;-85
2023/08/16 04:24:53;;;;;;;1.85;1.50;;;;;;;23.43;62.15;100116.78;4412955;32;33072;-85
2023/08/16 04:27:21;;;;;;;1.00;0.80;;;;;;;23.46;61.97;100111.13;4407757;32;31681;-86
2023/08/16 04:29:49;;;;;;;3.28;1.25;;;;;;;23.71;61.10;100115.09;4425773;32;32683;-86
2023/08/16 04:32:17;;;;;;;0.22;0.22;;;;;;;23.56;61.53;100111.97;4414798;32;34277;-86
2023/08/16 04:34:45;;;;;;;0.70;0.70;;;;;;;23.59;61.46;100106.28;4429943;32;33899;-83
2023/08/16 04:37:13;;;;;;;1.35;1.02;;;;;;;24.04;60.41;100105.69;4404794;32;32778;-85
2023/08/16 04:39:41;;;;;;;1.45;1.35;;;;;;;23.91;60.92;100105.13;4420814;32;32288;-85
2023/08/16 04:42:10;;;;;;;4.68;1.33;;;;;;;23.61;62.13;100114.25;4423234;32;32783;-85
2023/08/16 04:44:38;;;;;;;2.55;2.15;;;;;;;23.80;61.58;100118.78;4419929;32;33101;-85
2023/08/16 04:47:06;;;;;;;1.40;1.30;;;;;;;23.51;63.06;100119.63;4417494;32;31590;-85
2023/08/16 04:49:33;;;;;;;1.17;0.95;;;;;;;23.75;62.13;100124.63;4430865;32;33824;-85
2023/08/16 04:52:03;;;;;;;0.52;0.52;;;;;;;23.69;62.82;100119.78;4408274;32;33359;-87
2023/08/16 04:54:31;;;;;;;1.20;0.98;;;;;;;23.85;61.79;100128.13;4433083;32;32996;-87
2023/08/16 04:56:58;;;;;;;2.58;1.33;;;;;;;23.82;62.43;100127.56;4420683;32;32280;-87
2023/08/16 04:59:26;;;;;;;1.02;0.90;;;;;;;23.72;62.82;100122.19;4420769;32;32743;-87
2023/08/16 05:01:54;;;;;;;3.72;1.58;;;;;;;23.72;62.71;100120.34;4433995;32;33018;-87
2023/08/16 05:04:23;;;;;;;3.08;2.78;;;;;;;24.21;60.92;100104.94;4416875;32;32978;-86
2023/08/16 05:06:50;;;;;;;1.23;1.17;;;;;;;24.37;60.59;100101.63;4429617;32;32374;-86
2023/08/16 05:09:18;;;;;;;1.37;1.12;;;;;;;24.41;60.72;100105.72;4428651;32;33490;-86
2023/08/16 05:11:46;;;;;;;1.42;1.33;;;;;;;24.42;60.98;100114.66;4426079;32;33719;-86
2023/08/16 05:14:14;;;;;;;1.92;1.77;;;;;;;24.31;61.13;100113.00;4414488;32;33395;-86
2023/08/16 05:16:42;;;;;;;4.78;1.95;;;;;;;24.53;59.87;100117.16;4409555;32;33432;-86
2023/08/16 05:19:09;;;;;;;0.80;0.57;;;;;;;24.43;60.57;100116.38;4413550;32;33151;-86
2023/08/16 05:21:37;;;;;;;1.87;1.77;;;;;;;24.56;60.64;100111.50;4429164;32;33073;-87
2023/08/16 05:24:06;;;;;;;3.15;1.52;;;;;;;24.65;60.79;100120.53;4415170;32;32802;-87
2023/08/16 05:26:34;;;;;;;1.83;1.55;;;;;;;24.54;61.19;100121.56;4417755;32;33657;-87
2023/08/16 05:29:01;;;;;;;4.12;2.47;;;;;;;24.56;61.37;100116.03;4402476;32;34974;-87
2023/08/16 05:31:29;;;;;;;5.97;2.15;;;;;;;24.70;61.28;100119.09;4415790;32;32724;-88
2023/08/16 05:33:57;;;;;;;1.27;1.17;;;;;;;24.78;60.45;100105.69;4428337;32;33217;-88
2023/08/16 05:36:28;;;;;;;4.65;1.75;;;;;;;25.09;59.98;100101.81;4402166;32;32303;-89
2023/08/16 05:38:56;;;;;;;1.75;1.60;;;;;;;25.12;59.94;100107.78;4413161;32;34296;-88
2023/08/16 05:41:28;;;;;;;3.35;2.15;;;;;;;25.40;58.77;100113.09;4425379;32;34373;-87
2023/08/16 05:43:56;;;;;;;1.95;0.93;;;;;;;25.46;58.43;100123.31;4426450;32;33169;-87
2023/08/16 05:46:24;;;;;;;6.87;1.33;;;;;;;25.44;59.11;100122.59;4414707;32;32700;-87
2023/08/16 05:48:51;;;;;;;16.23;1.23;;;;;;;25.11;60.08;100122.28;4415129;32;32781;-87
2023/08/16 05:51:19;;;;;;;2.15;2.05;;;;;;;25.46;58.19;100136.84;4423863;32;34777;-87
2023/08/16 05:53:47;;;;;;;0.95;0.95;;;;;;;25.47;58.14;100133.13;4404493;32;32972;-88
2023/08/16 05:56:14;;;;;;;1.25;1.10;;;;;;;25.45;58.41;100129.72;4428032;32;32964;-88
2023/08/16 05:58:42;;;;;;;1.27;1.23;;;;;;;25.50;58.80;100127.41;4427557;32;33626;-87
2023/08/16 06:01:10;;;;;;;2.20;1.35;;;;;;;25.66;57.43;100119.44;4414469;32;33263;-85
2023/08/16 06:03:38;;;;;;;1.30;1.20;;;;;;;25.39;59.38;100130.31;4428150;32;34534;-84
2023/08/16 06:06:07;;;;;;;1.50;1.40;;;;;;;25.79;57.84;100127.19;4408382;32;33281;-85
2023/08/16 06:08:34;;;;;;;1.52;1.42;;;;;;;25.85;57.14;100120.28;4412772;32;33666;-86
2023/08/16 06:11:04;;;;;;;4.47;1.95;;;;;;;25.92;56.96;100121.34;4429998;32;33930;-86
2023/08/16 06:13:31;;;;;;;1.98;1.50;;;;;;;26.00;56.46;100116.00;4418648;32;32566;-89
2023/08/16 06:15:59;;;;;;;0.82;0.82;;;;;;;26.28;56.30;100116.69;4417960;32;33304;-88
2023/08/16 06:18:27;;;;;;;1.05;0.82;;;;;;;26.68;55.88;100129.63;4425911;32;33765;-88
2023/08/16 06:20:55;;;;;;;3.08;2.22;;;;;;;26.84;55.26;100122.56;4416236;32;33980;-88
2023/08/16 06:23:23;;;;;;;2.22;1.62;;;;;;;27.00;53.56;100118.03;4406186;32;32675;-90
2023/08/16 06:25:52;;;;;;;10.52;2.28;;;;;;;27.06;53.94;100108.37;4431960;32;32586;-90
2023/08/16 06:28:20;;;;;;;3.62;0.93;;;;;;;26.75;54.58;100125.22;4417175;32;33264;-89
2023/08/16 06:30:47;;;;;;;6.32;1.12;;;;;;;26.58;55.69;100133.44;4398993;32;32742;-88
2023/08/16 06:33:17;;;;;;;0.70;0.70;;;;;;;26.37;57.04;100141.94;4413314;32;33784;-88
2023/08/16 06:35:46;;;;;;;0.90;0.75;;;;;;;26.63;56.03;100134.66;4415218;32;32936;-87
2023/08/16 06:38:14;;;;;;;2.67;1.75;;;;;;;27.07;54.74;100126.34;4405065;32;32414;-88
2023/08/16 06:40:42;;;;;;;2.20;1.70;;;;;;;26.84;55.05;100122.56;4400265;32;33392;-89
2023/08/16 06:43:10;;;;;;;1.50;1.35;;;;;;;26.96;54.97;100121.22;4412390;32;32270;-88
2023/08/16 06:45:38;;;;;;;1.12;1.05;;;;;;;27.30;53.98;100118.47;4407101;32;33370;-89
2023/08/16 06:48:06;;;;;;;1.10;1.10;;;;;;;27.49;54.03;100114.59;4409936;32;34105;-88
2023/08/16 06:50:35;;;;;;;1.37;1.08;;;;;;;27.31;54.01;100121.00;4393696;32;33120;-89
2023/08/16 06:53:03;;;;;;;3.78;2.03;;;;;;;27.15;53.20;100109.28;4406866;32;33053;-89
2023/08/16 06:55:31;;;;;;;1.55;1.35;;;;;;;27.38;53.08;100114.91;4397257;32;32208;-89
2023/08/16 06:58:05;;;;;;;3.22;0.90;;;;;;;27.43;52.87;100102.53;4411634;32;33286;-88
2023/08/16 07:00:34;;;;;;;1.60;1.50;;;;;;;27.22;52.70;100103.03;4412782;32;33608;-88
2023/08/16 07:03:03;;;;;;;1.65;1.55;;;;;;;27.20;53.01;100107.75;4437830;32;33550;-88
2023/08/16 07:05:31;;;;;;;1.62;1.05;;;;;;;26.93;54.04;100108.88;4425944;32;33271;-88
2023/08/16 07:07:59;;;;;;;1.92;1.62;;;;;;;27.27;53.13;100103.38;4429497;32;33299;-88
2023/08/16 07:10:27;;;;;;;1.70;1.58;;;;;;;27.25;53.47;100104.56;4400843;32;32674;-88
2023/08/16 07:12:55;;;;;;;1.70;1.60;;;;;;;27.26;52.57;100109.81;4417874;32;32957;-88
2023/08/16 07:15:23;;;;;;;1.85;1.75;;;;;;;27.51;52.73;100104.41;4414227;32;32899;-81
2023/08/16 07:17:51;;;;;;;2.30;2.10;;;;;;;27.65;51.93;100111.87;4430023;32;33003;-80
2023/08/16 07:20:19;;;;;;;1.40;1.08;;;;;;;27.41;52.09;100117.31;4415043;32;34036;-81
2023/08/16 07:22:47;;;;;;;1.67;1.25;;;;;;;27.31;52.46;100117.47;4417676;32;32618;-81
2023/08/16 07:25:15;;;;;;;1.80;1.55;;;;;;;27.29;52.94;100125.75;4413031;32;32897;-80
2023/08/16 07:27:43;;;;;;;3.17;2.08;;;;;;;27.44;52.97;100122.37;4430042;32;33457;-81
2023/08/16 07:30:12;;;;;;;1.42;1.33;;;;;;;27.34;52.58;100124.41;4423887;32;33996;-80
2023/08/16 07:32:40;;;;;;;3.00;1.90;;;;;;;27.24;52.63;100121.84;4409797;32;34024;-80
2023/08/16 07:35:09;;;;;;;2.78;2.15;;;;;;;27.21;53.24;100133.88;4415569;32;32595;-81
2023/08/16 07:37:37;;;;;;;1.67;1.58;;;;;;;26.87;54.31;100143.88;4415948;32;33251;-80
2023/08/16 07:40:06;;;;;;;1.60;1.50;;;;;;;27.04;53.04;100140.22;4413105;32;32647;-80
2023/08/16 07:42:33;;;;;;;1.85;1.23;;;;;;;26.79;54.01;100137.44;4410073;32;32322;-81
2023/08/16 07:45:02;;;;;;;2.95;2.05;;;;;;;26.98;53.11;100143.59;4411642;32;31883;-81
2023/08/16 07:47:32;;;;;;;1.85;1.75;;;;;;;27.00;53.44;100134.28;4414110;32;33468;-80
2023/08/16 07:50:00;;;;;;;1.42;1.00;;;;;;;27.20;52.87;100140.28;4409799;32;34408;-80
2023/08/16 07:52:28;;;;;;;1.98;1.25;;;;;;;27.06;53.75;100132.78;4422091;32;33617;-80
2023/08/16 07:54:56;;;;;;;1.35;1.30;;;;;;;27.20;53.25;100134.03;4394067;32;33756;-80
2023/08/16 07:57:23;;;;;;;4.28;3.12;;;;;;;27.12;53.71;100132.16;4413060;32;32070;-81
2023/08/16 07:59:52;;;;;;;1.95;1.50;;;;;;;27.12;54.48;100137.59;4424071;32;33765;-80
2023/08/16 08:02:21;;;;;;;3.33;2.30;;;;;;;27.30;53.62;100138.31;4413406;32;32738;-81
2023/08/16 08:04:50;;;;;;;1.92;1.62;;;;;;;27.40;53.11;100145.44;4399324;32;32560;-80
2023/08/16 08:07:20;;;;;;;3.10;1.42;;;;;;;27.63;52.85;100146.47;4423159;32;33152;-81
2023/08/16 08:09:47;;;;;;;10.27;1.83;;;;;;;27.41;54.79;100152.56;4423695;32;33761;-80
2023/08/16 08:12:15;;;;;;;2.70;2.00;;;;;;;27.57;53.38;100157.97;4422273;32;34089;-81
2023/08/16 08:14:43;;;;;;;0.77;0.77;;;;;;;27.33;54.08;100163.38;4423541;32;33740;-81
2023/08/16 08:17:11;;;;;;;1.23;1.12;;;;;;;27.49;53.56;100171.56;4426713;32;33427;-81
2023/08/16 08:19:39;;;;;;;1.90;1.80;;;;;;;27.60;53.32;100173.94;4413007;32;33221;-81
2023/08/16 08:22:06;;;;;;;2.37;1.55;;;;;;;27.47;54.29;100177.13;4403235;32;32662;-81
2023/08/16 08:24:34;;;;;;;1.67;1.58;;;;;;;27.56;53.99;100175.28;4425224;32;33337;-81
2023/08/16 08:27:04;;;;;;;2.55;2.10;;;;;;;27.80;53.05;100183.47;4413272;32;33201;-80
2023/08/16 08:29:31;;;;;;;1.20;1.10;;;;;;;27.73;52.87;100182.47;4426407;32;35943;-81
2023/08/16 08:31:59;;;;;;;3.72;1.95;;;;;;;27.85;52.58;100176.69;4400312;32;34096;-81
2023/08/16 08:34:27;;;;;;;1.75;1.50;;;;;;;27.91;52.70;100179.56;4425633;32;33318;-81
2023/08/16 08:36:54;;;;;;;7.82;2.97;;;;;;;27.85;52.27;100182.13;4428849;32;33592;-81
2023/08/16 08:39:22;;;;;;;2.28;1.08;;;;;;;27.72;51.94;100183.47;4412196;32;33663;-80
2023/08/16 08:41:50;;;;;;;1.70;1.62;;;;;;;27.83;51.78;100185.00;4415210;32;33690;-81
2023/08/16 08:44:19;;;;;;;3.50;2.60;;;;;;;27.81;52.37;100187.88;4417831;32;32891;-81
2023/08/16 08:46:48;;;;;;;2.15;1.73;;;;;;;27.69;52.77;100194.62;4424125;32;33756;-81
2023/08/16 08:49:19;;;;;;;5.57;1.98;;;;;;;27.66;52.61;100194.97;4426244;32;33562;-81
2023/08/16 08:51:46;;;;;;;11.55;2.47;;;;;;;27.92;52.19;100196.72;4416120;32;32522;-80
2023/08/16 08:54:14;;;;;;;1.83;1.67;;;;;;;28.11;51.93;100190.09;4414318;32;33760;-80
2023/08/16 08:56:43;;;;;;;2.25;2.08;;;;;;;28.07;52.95;100189.59;4414713;32;32747;-81
2023/08/16 08:59:11;;;;;;;4.60;2.75;;;;;;;27.91;52.76;100201.28;4415034;32;32748;-80
2023/08/16 09:01:44;;;;;;;3.57;1.27;;;;;;;27.96;52.03;100192.63;4404790;32;32892;-80
2023/08/16 09:04:13;;;;;;;1.80;1.70;;;;;;;27.92;52.46;100197.56;4424024;32;33353;-81
2023/08/16 09:06:41;;;;;;;4.32;1.52;;;;;;;28.06;52.82;100193.31;4413980;32;32835;-80
2023/08/16 09:09:09;;;;;;;1.52;1.42;;;;;;;28.18;52.65;100194.66;4418524;32;34133;-81
2023/08/16 09:11:38;;;;;;;2.67;2.17;;;;;;;27.98;52.84;100193.31;4403562;32;33833;-80
2023/08/16 09:14:05;;;;;;;2.28;1.60;;;;;;;27.89;52.31;100199.75;4423723;32;33419;-81
2023/08/16 09:16:33;;;;;;;2.53;2.33;;;;;;;27.99;52.07;100201.28;4421250;32;32504;-81
2023/08/16 09:19:02;;;;;;;2.40;1.83;;;;;;;27.54;53.68;100207.16;4417335;32;33679;-81
2023/08/16 09:21:30;;;;;;;2.40;1.45;;;;;;;27.96;52.55;100204.31;4397060;32;32530;-81
2023/08/16 09:23:58;;;;;;;2.47;2.28;;;;;;;27.77;52.49;100204.66;4436457;32;33268;-80
2023/08/16 09:26:27;;;;;;;9.93;2.28;;;;;;;28.47;51.17;100198.72;4397463;32;33605;-81
2023/08/16 09:28:59;;;;;;;18.80;3.78;;;;;;;28.70;51.06;100199.69;4407894;32;33923;-80
2023/08/16 09:31:40;;;;;;;2.83;1.83;;;;;;;28.54;50.33;100195.16;4412895;32;32425;-81
2023/08/16 09:34:07;;;;;;;10.35;1.95;;;;;;;28.66;49.94;100198.31;4425685;32;33313;-80
2023/08/16 09:36:36;;;;;;;1.73;1.62;;;;;;;29.57;48.16;100197.78;4422056;32;32524;-81
2023/08/16 09:39:11;;;;;;;3.08;2.47;;;;;;;29.46;47.34;100190.00;4410748;32;34233;-81
2023/08/16 09:41:49;;;;;;;1.17;1.08;;;;;;;30.02;46.50;100196.09;4418917;32;32627;-81
2023/08/16 09:44:18;;;;;;;1.83;1.62;;;;;;;29.36;47.70;100191.28;4427947;32;32939;-81
2023/08/16 09:46:46;;;;;;;3.53;2.65;;;;;;;29.71;47.69;100196.16;4410329;32;32563;-80
2023/08/16 09:49:21;;;;;;;4.93;1.80;;;;;;;30.24;45.27;100188.06;4413503;32;32748;-81
2023/08/16 09:51:51;;;;;;;1.20;1.10;;;;;;;29.89;45.74;100195.00;4428205;32;33963;-81
2023/08/16 09:54:23;;;;;;;4.07;1.85;;;;;;;29.95;46.25;100188.81;4428076;32;33909;-81
2023/08/16 09:56:51;;;;;;;1.30;0.82;;;;;;;29.79;46.74;100185.22;4417226;32;33636;-81
2023/08/16 09:59:22;;;;;;;2.12;2.00;;;;;;;30.10;46.09;100181.56;4416051;32;33627;-81
2023/08/16 10:01:54;;;;;;;1.40;1.30;;;;;;;30.53;44.48;100173.66;4414275;32;34516;-81
2023/08/16 10:04:41;;;;;;;3.67;3.17;;;;;;;30.66;43.94;100173.84;4432366;32;33034;-81
2023/08/16 10:07:11;;;;;;;1.58;1.33;;;;;;;30.60;43.82;100177.31;4420579;32;34353;-81
2023/08/16 10:09:42;;;;;;;2.95;2.47;;;;;;;30.61;44.27;100187.19;4426430;32;33469;-81
2023/08/16 10:12:11;;;;;;;3.33;3.00;;;;;;;30.71;44.32;100190.50;4427604;32;33556;-81
2023/08/16 10:14:38;;;;;;;4.53;2.30;;;;;;;30.05;44.70;100201.19;4415160;32;32966;-81
2023/08/16 10:17:07;;;;;;;2.22;1.90;;;;;;;30.33;43.95;100185.09;4414809;32;32624;-81
2023/08/16 10:19:38;;;;;;;7.05;1.58;;;;;;;30.51;43.93;100189.34;4413451;32;32885;-81
2023/08/16 10:22:20;;;;;;;4.07;1.75;;;;;;;30.60;44.58;100185.50;4421316;32;33619;-81
2023/08/16 10:24:51;;;;;;;2.50;1.42;;;;;;;30.69;44.37;100187.09;4423615;32;32748;-81
2023/08/16 10:27:23;;;;;;;7.80;1.45;;;;;;;30.57;43.68;100194.03;4409837;32;32281;-81
2023/08/16 10:29:54;;;;;;;1.60;1.50;;;;;;;30.71;43.94;100190.50;4432571;32;33273;-81
2023/08/16 10:32:24;;;;;;;2.00;1.30;;;;;;;30.96;42.91;100187.50;4422483;32;33016;-80
2023/08/16 10:34:56;;;;;;;1.45;1.35;;;;;;;31.10;42.83;100186.63;4423069;32;32356;-81
2023/08/16 10:37:25;;;;;;;1.62;1.50;;;;;;;31.16;43.10;100188.59;4407324;32;34753;-81
2023/08/16 10:39:53;;;;;;;2.17;2.08;;;;;;;31.45;41.45;100184.13;4396996;32;32085;-81
2023/08/16 10:42:27;;;;;;;1.65;1.55;;;;;;;31.08;42.53;100178.63;4397704;32;33531;-81
2023/08/16 10:44:55;;;;;;;2.22;2.10;;;;;;;31.33;41.45;100187.38;4423814;32;32898;-81
2023/08/16 10:47:30;;;;;;;1.70;1.60;;;;;;;31.14;42.02;100190.63;4419995;32;33468;-81
2023/08/16 10:50:01;;;;;;;5.07;2.33;;;;;;;31.50;41.54;100190.69;4418328;32;34671;-81
2023/08/16 10:52:29;;;;;;;2.75;2.10;;;;;;;31.20;41.26;100189.91;4412485;32;32351;-80
2023/08/16 10:54:59;;;;;;;1.35;1.25;;;;;;;31.08;41.12;100180.50;4412896;32;32195;-80
2023/08/16 10:57:26;;;;;;;8.18;2.87;;;;;;;30.80;42.38;100183.91;4399922;32;32665;-80
2023/08/16 11:00:08;;;;;;;2.10;1.90;;;;;;;30.63;42.40;100176.13;4411241;32;33501;-80
2023/08/16 11:02:37;;;;;;;3.10;1.35;;;;;;;30.71;42.91;100179.59;4392852;32;32628;-81
2023/08/16 11:05:06;;;;;;;2.20;2.00;;;;;;;31.38;41.52;100178.56;4408744;32;32196;-81
2023/08/16 11:07:34;;;;;;;2.20;1.80;;;;;;;31.33;42.40;100179.19;4418038;32;34040;-81
2023/08/16 11:10:03;;;;;;;1.73;1.55;;;;;;;31.37;41.68;100169.53;4409282;32;32684;-81
2023/08/16 11:12:31;;;;;;;5.70;1.75;;;;;;;31.68;41.62;100160.22;4417795;32;32744;-81
2023/08/16 11:14:59;;;;;;;1.90;1.50;;;;;;;32.04;41.00;100159.28;4420892;32;31439;-81
2023/08/16 11:17:28;;;;;;;2.12;1.55;;;;;;;31.65;39.95;100165.22;4424054;32;32763;-81
2023/08/16 11:20:00;;;;;;;2.22;1.77;;;;;;;32.24;39.86;100154.84;4425574;32;34423;-80
2023/08/16 11:22:29;;;;;;;1.37;1.27;;;;;;;32.26;39.48;100157.38;4424489;32;34340;-81
2023/08/16 11:24:59;;;;;;;1.05;0.93;;;;;;;32.53;38.68;100166.63;4409971;32;31967;-83
2023/08/16 11:27:29;;;;;;;2.10;1.90;;;;;;;32.27;37.88;100159.03;4424829;32;33356;-81
2023/08/16 11:29:59;;;;;;;1.12;1.05;;;;;;;32.48;38.39;100166.37;4411439;32;34476;-81
2023/08/16 11:32:35;;;;;;;1.37;1.27;;;;;;;32.87;37.66;100174.78;4427230;32;33574;-81